Terminal Aerodrome Forecast
Issued by NWS Jackson, MS

Current Version | Previous Version | Text Only | Print | Product List | Glossary On
Versions: 1 2 3 4 5 6 7 8 9 10 11 12 13 14 15 16 17 18 19
000
FTUS44 KJAN 310500
TAFHBG
TAF
KHBG 310525Z 3106/0106 09003KT P6SM BKN150
     FM310800 VRB03KT 5SM BR OVC006
     FM311400 18007KT P6SM BKN015
     FM311600 19006KT P6SM SCT040=

USA.gov is the U.S. government's official web portal to all federal, state and local government web resources and services.